Time;durP1;ratioP1;P1;durP2;ratioP2;P2;SDS_P1;SDS_P2;PMS_P1;PMS_P2;Temp;Humidity;BMP_temperature;BMP_pressure;BME280_temperature;BME280_humidity;BME280_pressure;Samples;Min_cycle;Max_cycle;Signal;HPM_P1;HPM_P2
2022/11/12 00:00:36;;;;;;;25.20;8.77;;;;;;;;;;5020540;28;20036;-90
2022/11/12 00:03:04;;;;;;;25.35;10.27;;;;;;;;;;5023978;28;20120;-91
2022/11/12 00:05:33;;;;;;;18.83;8.80;;;;;;;;;;4995410;28;20034;-90
2022/11/12 00:08:00;;;;;;;23.60;8.75;;;;;;;;;;5010975;28;20035;-90
2022/11/12 00:10:39;;;;;;;22.00;9.32;;;;;;;;;;5010027;28;20445;-91
2022/11/12 00:13:05;;;;;;;25.35;9.73;;;;;;;;;;5011752;28;20071;-90
2022/11/12 00:15:42;;;;;;;16.80;8.48;;;;;;;;;;4999057;28;20382;-90
2022/11/12 00:18:08;;;;;;;15.85;8.27;;;;;;;;;;5022063;28;20076;-90
2022/11/12 00:20:55;;;;;;;26.75;9.75;;;;;;;;;;5018199;28;20081;-90
2022/11/12 00:23:25;;;;;;;23.80;9.00;;;;;;;;;;5026188;28;20034;-90
2022/11/12 00:26:19;;;;;;;23.48;9.23;;;;;;;;;;5013837;28;20045;-90
2022/11/12 00:28:49;;;;;;;20.13;9.10;;;;;;;;;;5020164;28;20033;-90
2022/11/12 00:31:16;;;;;;;22.63;8.57;;;;;;;;;;5009334;28;20041;-90
2022/11/12 00:33:43;;;;;;;17.95;9.13;;;;;;;;;;5016293;28;20499;-91
2022/11/12 00:36:10;;;;;;;18.75;9.68;;;;;;;;;;5003795;28;20104;-91
2022/11/12 00:38:38;;;;;;;17.45;7.68;;;;;;;;;;5004383;28;20041;-90
2022/11/12 00:41:05;;;;;;;22.77;9.10;;;;;;;;;;5010960;28;20040;-92
2022/11/12 00:43:31;;;;;;;20.85;9.50;;;;;;;;;;5005819;28;20099;-91
2022/11/12 00:45:57;;;;;;;23.30;9.77;;;;;;;;;;5017002;28;20048;-91
2022/11/12 00:48:35;;;;;;;19.95;8.95;;;;;;;;;;4995680;28;20033;-91
2022/11/12 00:51:22;;;;;;;21.08;8.60;;;;;;;;;;5003489;28;20080;-89
2022/11/12 00:53:52;;;;;;;19.27;9.15;;;;;;;;;;5028494;28;20029;-90
2022/11/12 00:56:18;;;;;;;20.75;9.90;;;;;;;;;;4998411;28;20030;-89
2022/11/12 00:58:45;;;;;;;24.88;8.80;;;;;;;;;;4990937;28;20037;-90
2022/11/12 01:01:14;;;;;;;20.35;9.35;;;;;;;;;;5012865;28;20116;-89
2022/11/12 01:03:41;;;;;;;18.02;9.60;;;;;;;;;;5011912;28;20034;-90
2022/11/12 01:06:18;;;;;;;20.88;9.32;;;;;;;;;;5004448;28;20021;-90
2022/11/12 01:08:44;;;;;;;15.60;8.10;;;;;;;;;;5012082;28;20045;-90
2022/11/12 01:11:15;;;;;;;20.98;9.55;;;;;;;;;;5005050;28;20033;-90
2022/11/12 01:13:42;;;;;;;21.92;10.20;;;;;;;;;;5026572;28;20477;-90
2022/11/12 01:16:10;;;;;;;20.17;9.25;;;;;;;;;;5006731;28;20573;-90
2022/11/12 01:18:36;;;;;;;17.83;9.27;;;;;;;;;;5009399;28;20033;-90
2022/11/12 01:21:03;;;;;;;19.95;9.10;;;;;;;;;;4989300;28;20033;-90
2022/11/12 01:23:31;;;;;;;18.45;9.68;;;;;;;;;;5008364;28;20022;-90
2022/11/12 01:25:57;;;;;;;17.65;9.60;;;;;;;;;;5002884;28;20056;-90
2022/11/12 01:28:23;;;;;;;20.70;9.95;;;;;;;;;;5025927;28;20025;-90
2022/11/12 01:30:50;;;;;;;20.85;9.73;;;;;;;;;;5001525;28;20093;-90
2022/11/12 01:33:16;;;;;;;20.80;9.18;;;;;;;;;;4989272;28;20041;-90
2022/11/12 01:35:42;;;;;;;24.83;10.45;;;;;;;;;;4993625;28;20037;-90
2022/11/12 01:38:08;;;;;;;17.40;10.05;;;;;;;;;;5002495;28;20100;-90
2022/11/12 01:40:34;;;;;;;15.93;8.57;;;;;;;;;;4988050;28;20034;-90
2022/11/12 01:43:00;;;;;;;20.35;9.02;;;;;;;;;;4990455;28;20040;-90
2022/11/12 01:45:26;;;;;;;24.27;9.27;;;;;;;;;;4989135;28;20040;-89
2022/11/12 01:47:52;;;;;;;21.05;10.65;;;;;;;;;;5000478;28;20049;-90
2022/11/12 01:50:25;;;;;;;16.25;9.13;;;;;;;;;;4992167;28;20033;-90
2022/11/12 01:52:56;;;;;;;21.60;9.27;;;;;;;;;;5006037;28;20096;-91
2022/11/12 01:55:24;;;;;;;23.17;10.50;;;;;;;;;;5000841;28;20125;-90
2022/11/12 01:58:09;;;;;;;20.70;10.07;;;;;;;;;;5008199;28;20036;-90
2022/11/12 02:00:35;;;;;;;20.15;9.43;;;;;;;;;;4996886;28;20057;-90
2022/11/12 02:03:02;;;;;;;22.63;9.35;;;;;;;;;;5003105;28;20029;-90
2022/11/12 02:05:29;;;;;;;19.92;10.00;;;;;;;;;;5002398;28;20370;-90
2022/11/12 02:07:55;;;;;;;22.25;10.63;;;;;;;;;;5000178;28;20385;-90
2022/11/12 02:10:21;;;;;;;20.08;10.73;;;;;;;;;;4981818;28;20041;-90
2022/11/12 02:15:33;;;;;;;19.80;9.35;;;;;;;;;;5012740;28;20122;-90
2022/11/12 02:17:59;;;;;;;23.55;10.55;;;;;;;;;;4999978;28;20774;-91
2022/11/12 02:20:25;;;;;;;25.80;10.70;;;;;;;;;;4984734;28;20033;-90
2022/11/12 02:22:51;;;;;;;25.40;12.10;;;;;;;;;;4981309;28;20036;-90
2022/11/12 02:25:19;;;;;;;27.40;11.52;;;;;;;;;;4988327;28;20144;-90
2022/11/12 02:27:45;;;;;;;26.55;10.73;;;;;;;;;;4999644;28;20539;-91
2022/11/12 02:30:11;;;;;;;19.08;9.60;;;;;;;;;;5002498;28;20136;-91
2022/11/12 02:32:37;;;;;;;22.08;9.90;;;;;;;;;;4999792;28;20034;-91
2022/11/12 02:35:04;;;;;;;18.85;9.77;;;;;;;;;;5002491;28;20378;-91
2022/11/12 02:37:30;;;;;;;20.58;10.80;;;;;;;;;;4986908;28;20030;-91
2022/11/12 02:39:56;;;;;;;29.75;10.75;;;;;;;;;;4991021;28;20374;-91
2022/11/12 02:42:22;;;;;;;23.52;10.55;;;;;;;;;;4984476;28;20132;-91
2022/11/12 02:44:48;;;;;;;28.55;11.70;;;;;;;;;;5003319;28;20044;-91
2022/11/12 02:47:14;;;;;;;25.63;11.68;;;;;;;;;;4988984;28;20100;-91
2022/11/12 02:49:40;;;;;;;26.38;11.18;;;;;;;;;;4991340;28;20037;-90
2022/11/12 02:52:06;;;;;;;23.85;10.35;;;;;;;;;;5022053;28;20068;-90
2022/11/12 02:54:32;;;;;;;22.80;11.15;;;;;;;;;;5002752;28;20038;-90
2022/11/12 02:56:58;;;;;;;22.40;10.88;;;;;;;;;;4987537;28;20048;-91
2022/11/12 02:59:24;;;;;;;25.85;11.07;;;;;;;;;;5006034;28;20489;-90
2022/11/12 03:01:50;;;;;;;21.15;11.48;;;;;;;;;;4986529;28;20091;-90
2022/11/12 03:04:16;;;;;;;28.98;12.35;;;;;;;;;;5008004;28;20390;-90
2022/11/12 03:06:42;;;;;;;27.20;11.02;;;;;;;;;;4990642;28;20041;-90
2022/11/12 03:09:08;;;;;;;21.58;10.98;;;;;;;;;;4995492;28;20033;-91
2022/11/12 03:11:34;;;;;;;21.02;11.65;;;;;;;;;;4988840;28;20877;-91
2022/11/12 03:14:01;;;;;;;23.05;11.52;;;;;;;;;;5007315;28;20041;-91
2022/11/12 03:16:27;;;;;;;23.90;12.05;;;;;;;;;;5003901;28;20132;-91
2022/11/12 03:18:53;;;;;;;26.23;11.30;;;;;;;;;;4993996;28;20070;-91
2022/11/12 03:21:19;;;;;;;18.83;9.85;;;;;;;;;;4996170;28;20654;-91
2022/11/12 03:23:45;;;;;;;19.75;10.98;;;;;;;;;;4992585;28;20072;-90
2022/11/12 03:26:11;;;;;;;26.00;11.05;;;;;;;;;;4995045;28;20077;-90
2022/11/12 03:28:37;;;;;;;26.00;12.18;;;;;;;;;;4983247;28;20400;-90
2022/11/12 03:31:03;;;;;;;25.08;11.48;;;;;;;;;;4995194;28;20052;-90
2022/11/12 03:33:29;;;;;;;27.23;13.52;;;;;;;;;;4988262;28;20424;-90
2022/11/12 03:35:55;;;;;;;26.88;11.98;;;;;;;;;;4991564;28;20025;-90
2022/11/12 03:38:21;;;;;;;23.63;12.27;;;;;;;;;;4984745;28;20034;-90
2022/11/12 03:40:48;;;;;;;21.65;11.18;;;;;;;;;;5012569;28;20026;-90
2022/11/12 03:43:14;;;;;;;25.58;11.77;;;;;;;;;;5013534;28;20068;-90
2022/11/12 03:45:40;;;;;;;24.05;11.93;;;;;;;;;;4991027;28;20060;-90
2022/11/12 03:48:06;;;;;;;28.40;12.02;;;;;;;;;;4987366;28;20030;-90
2022/11/12 03:50:32;;;;;;;25.42;12.95;;;;;;;;;;5011902;28;20774;-90
2022/11/12 03:52:58;;;;;;;31.38;13.18;;;;;;;;;;5002780;28;20042;-90
2022/11/12 03:55:27;;;;;;;27.65;12.23;;;;;;;;;;5001506;28;23061;-90
2022/11/12 03:57:53;;;;;;;32.92;13.73;;;;;;;;;;5014715;28;20030;-91
2022/11/12 04:00:20;;;;;;;26.27;12.07;;;;;;;;;;5004282;28;20034;-91
2022/11/12 04:02:46;;;;;;;20.85;11.38;;;;;;;;;;5007899;28;20376;-90
2022/11/12 04:10:46;;;;;;;19.52;10.32;;;;;;;;;;5016435;28;20056;-90
2022/11/12 04:13:28;;;;;;;20.73;10.55;;;;;;;;;;5007398;28;20560;-90
2022/11/12 04:27:01;;;;;;;22.33;10.25;;;;;;;;;;4990795;28;20055;-91
2022/11/12 04:32:19;;;;;;;22.92;10.02;;;;;;;;;;4983892;28;20061;-90
2022/11/12 04:34:45;;;;;;;23.20;10.35;;;;;;;;;;5024088;28;20049;-91
2022/11/12 04:37:11;;;;;;;23.60;10.50;;;;;;;;;;4989713;28;20036;-90
2022/11/12 04:39:37;;;;;;;21.20;10.73;;;;;;;;;;4991229;28;21549;-91
2022/11/12 04:45:04;;;;;;;20.27;10.20;;;;;;;;;;5025170;28;20385;-91
2022/11/12 04:47:30;;;;;;;;;;;;;;;;;;5008734;28;20560;-90
2022/11/12 04:49:56;;;;;;;21.15;10.93;;;;;;;;;;5004099;28;19920;-90
2022/11/12 04:52:22;;;;;;;24.77;10.30;;;;;;;;;;4996807;28;20088;-90
2022/11/12 04:54:48;;;;;;;27.63;10.90;;;;;;;;;;5005457;28;20608;-91
2022/11/12 04:57:14;;;;;;;19.90;10.80;;;;;;;;;;4980625;28;20208;-91
2022/11/12 04:59:40;;;;;;;27.27;10.65;;;;;;;;;;5005398;28;20045;-90
2022/11/12 05:02:06;;;;;;;52.20;11.23;;;;;;;;;;4990516;28;20056;-91
2022/11/12 05:04:32;;;;;;;43.90;11.63;;;;;;;;;;4989408;28;20065;-90
2022/11/12 05:06:58;;;;;;;27.70;11.00;;;;;;;;;;5007493;28;20021;-91
2022/11/12 05:09:25;;;;;;;37.20;10.85;;;;;;;;;;5002829;28;20712;-91
2022/11/12 05:11:52;;;;;;;21.60;10.95;;;;;;;;;;4987574;28;20068;-91
2022/11/12 05:14:18;;;;;;;23.67;11.02;;;;;;;;;;5005766;28;20081;-91
2022/11/12 05:16:52;;;;;;;28.38;12.32;;;;;;;;;;5005511;28;20049;-91
2022/11/12 05:19:18;;;;;;;22.52;11.63;;;;;;;;;;4988851;28;20040;-91
2022/11/12 05:24:39;;;;;;;21.42;11.52;;;;;;;;;;5005875;28;20123;-91
2022/11/12 05:27:16;;;;;;;24.92;12.07;;;;;;;;;;5003660;28;20089;-91
2022/11/12 05:29:43;;;;;;;32.88;12.18;;;;;;;;;;4997853;28;20033;-91
2022/11/12 05:32:10;;;;;;;25.92;12.35;;;;;;;;;;4984536;28;20045;-91
2022/11/12 05:34:36;;;;;;;26.75;12.70;;;;;;;;;;4996634;28;20042;-91
2022/11/12 05:37:03;;;;;;;27.90;12.35;;;;;;;;;;4971924;28;20033;-91
2022/11/12 05:39:29;;;;;;;26.27;13.45;;;;;;;;;;4988521;28;20553;-90
2022/11/12 05:41:55;;;;;;;31.00;13.32;;;;;;;;;;4985618;28;20036;-91
2022/11/12 05:44:21;;;;;;;27.05;12.25;;;;;;;;;;4998712;28;20034;-91
2022/11/12 05:46:49;;;;;;;24.40;12.43;;;;;;;;;;4984050;28;20049;-91
2022/11/12 05:49:15;;;;;;;27.50;12.43;;;;;;;;;;4969842;28;20174;-91
2022/11/12 05:51:41;;;;;;;24.50;12.18;;;;;;;;;;4970971;28;20042;-91
2022/11/12 05:54:07;;;;;;;27.08;12.70;;;;;;;;;;4964192;28;20434;-90
2022/11/12 05:56:33;;;;;;;25.90;12.20;;;;;;;;;;4970776;28;20169;-90
2022/11/12 05:59:00;;;;;;;25.83;11.90;;;;;;;;;;4982149;28;20034;-90
2022/11/12 06:01:26;;;;;;;25.60;12.65;;;;;;;;;;4989614;28;20142;-91
2022/11/12 06:03:52;;;;;;;21.42;10.90;;;;;;;;;;4984218;28;20485;-91
2022/11/12 06:06:18;;;;;;;20.52;11.82;;;;;;;;;;4965160;28;20052;-91
2022/11/12 06:08:44;;;;;;;19.25;11.45;;;;;;;;;;4973924;28;20039;-91
2022/11/12 06:11:10;;;;;;;23.08;10.82;;;;;;;;;;4983763;28;20038;-91
2022/11/12 06:13:36;;;;;;;22.08;10.77;;;;;;;;;;4975215;28;20472;-90
2022/11/12 06:16:03;;;;;;;24.52;10.43;;;;;;;;;;4989482;28;20052;-91
2022/11/12 06:18:28;;;;;;;24.13;10.43;;;;;;;;;;4991848;28;20056;-91
2022/11/12 06:21:18;;;;;;;28.35;9.85;;;;;;;;;;4986339;28;20061;-91
2022/11/12 06:23:45;;;;;;;25.70;11.93;;;;;;;;;;4987449;28;20147;-90
2022/11/12 06:26:11;;;;;;;36.38;11.27;;;;;;;;;;4982607;28;20050;-90
2022/11/12 06:28:37;;;;;;;32.85;11.10;;;;;;;;;;4987974;28;20034;-90
2022/11/12 06:31:03;;;;;;;69.22;12.52;;;;;;;;;;5007021;28;20036;-90
2022/11/12 06:33:29;;;;;;;28.25;10.88;;;;;;;;;;5003954;28;20030;-90
2022/11/12 06:35:56;;;;;;;57.20;13.50;;;;;;;;;;5005543;28;20029;-91
2022/11/12 06:38:22;;;;;;;114.22;14.68;;;;;;;;;;5009501;28;20106;-90
2022/11/12 06:40:48;;;;;;;35.55;11.48;;;;;;;;;;5005256;28;20030;-90
2022/11/12 06:43:14;;;;;;;150.77;15.63;;;;;;;;;;4986673;28;20026;-90
2022/11/12 06:45:40;;;;;;;44.15;11.48;;;;;;;;;;4989615;28;20045;-90
2022/11/12 06:48:06;;;;;;;77.07;11.90;;;;;;;;;;5003829;28;20026;-90
2022/11/12 06:50:32;;;;;;;91.00;13.32;;;;;;;;;;5003020;28;20038;-90
2022/11/12 06:52:59;;;;;;;66.95;12.82;;;;;;;;;;5005858;28;20034;-90
2022/11/12 06:55:25;;;;;;;62.75;10.90;;;;;;;;;;5006219;28;20499;-90
2022/11/12 06:57:52;;;;;;;60.88;13.15;;;;;;;;;;5005414;28;20033;-89
2022/11/12 07:00:18;;;;;;;64.68;10.63;;;;;;;;;;5019311;28;20025;-90
2022/11/12 07:02:44;;;;;;;69.90;10.48;;;;;;;;;;4992635;28;20863;-90
2022/11/12 07:05:10;;;;;;;87.30;10.90;;;;;;;;;;4993799;28;20038;-90
2022/11/12 07:07:36;;;;;;;91.30;11.88;;;;;;;;;;5018144;28;20699;-90
2022/11/12 07:10:02;;;;;;;85.97;10.50;;;;;;;;;;4991495;28;20072;-91
2022/11/12 07:12:28;;;;;;;50.83;10.15;;;;;;;;;;5005840;28;20038;-90
2022/11/12 07:14:55;;;;;;;85.10;11.93;;;;;;;;;;5012239;28;20111;-89
2022/11/12 07:17:21;;;;;;;72.72;13.48;;;;;;;;;;5008339;28;20026;-90
2022/11/12 07:19:47;;;;;;;107.95;14.82;;;;;;;;;;5002548;28;20028;-91
2022/11/12 07:22:13;;;;;;;90.07;13.13;;;;;;;;;;5006249;28;20374;-91
2022/11/12 07:24:39;;;;;;;60.95;13.32;;;;;;;;;;5004551;28;20069;-91
2022/11/12 07:27:05;;;;;;;91.10;14.38;;;;;;;;;;5005102;28;20053;-91
2022/11/12 07:29:31;;;;;;;59.90;15.80;;;;;;;;;;4990856;28;20033;-91
2022/11/12 07:31:57;;;;;;;53.72;15.15;;;;;;;;;;5006545;28;20033;-91
2022/11/12 07:34:23;;;;;;;52.78;15.13;;;;;;;;;;5029381;28;20041;-92
2022/11/12 07:36:50;;;;;;;48.90;15.85;;;;;;;;;;4991886;28;20053;-91
2022/11/12 07:39:17;;;;;;;51.78;15.50;;;;;;;;;;5009205;28;20029;-91
2022/11/12 07:41:43;;;;;;;48.05;15.90;;;;;;;;;;5006532;28;20025;-90
2022/11/12 07:44:09;;;;;;;53.55;16.48;;;;;;;;;;4987333;28;20065;-91
2022/11/12 07:46:35;;;;;;;81.15;19.10;;;;;;;;;;4989097;28;20128;-90
2022/11/12 07:49:01;;;;;;;86.45;18.15;;;;;;;;;;5005734;28;20461;-90
2022/11/12 07:51:28;;;;;;;133.02;23.70;;;;;;;;;;5006115;28;20025;-90
2022/11/12 07:53:55;;;;;;;131.50;23.73;;;;;;;;;;5008378;28;22038;-90
2022/11/12 07:56:22;;;;;;;104.40;20.80;;;;;;;;;;5005994;28;20033;-90
2022/11/12 07:58:51;;;;;;;122.07;23.25;;;;;;;;;;4990646;28;20040;-90
2022/11/12 08:01:20;;;;;;;92.93;20.90;;;;;;;;;;5004937;28;20026;-90
2022/11/12 08:03:46;;;;;;;88.25;20.67;;;;;;;;;;5004300;28;20528;-90
2022/11/12 08:06:12;;;;;;;94.97;19.23;;;;;;;;;;4992047;28;20042;-91
2022/11/12 08:08:41;;;;;;;155.20;26.92;;;;;;;;;;4993715;28;20029;-92
2022/11/12 08:11:08;;;;;;;87.65;20.50;;;;;;;;;;4990670;28;20535;-91
2022/11/12 08:13:34;;;;;;;114.07;26.58;;;;;;;;;;5002092;28;20535;-91
2022/11/12 08:16:00;;;;;;;105.18;22.35;;;;;;;;;;5027792;28;20033;-90
2022/11/12 08:18:26;;;;;;;83.03;20.05;;;;;;;;;;5005334;28;20595;-90
2022/11/12 08:20:52;;;;;;;103.80;23.00;;;;;;;;;;5005703;28;20445;-90
2022/11/12 08:23:18;;;;;;;93.25;24.23;;;;;;;;;;5012799;28;20539;-90
2022/11/12 08:25:44;;;;;;;128.52;25.05;;;;;;;;;;5001890;28;20057;-90
2022/11/12 08:28:23;;;;;;;101.05;23.45;;;;;;;;;;5003430;28;20416;-90
2022/11/12 08:30:49;;;;;;;116.88;23.88;;;;;;;;;;5005489;28;20042;-91
2022/11/12 08:33:15;;;;;;;114.55;24.65;;;;;;;;;;5001135;28;20052;-91
2022/11/12 08:35:41;;;;;;;114.47;26.25;;;;;;;;;;5000173;28;20041;-91
2022/11/12 08:38:09;;;;;;;91.28;24.42;;;;;;;;;;5005661;28;20033;-90
2022/11/12 08:40:35;;;;;;;114.47;26.38;;;;;;;;;;5018470;28;20022;-90
2022/11/12 08:43:04;;;;;;;146.65;30.88;;;;;;;;;;5017748;28;20054;-91
2022/11/12 08:45:35;;;;;;;111.22;26.15;;;;;;;;;;5004686;28;20034;-91
2022/11/12 08:48:02;;;;;;;116.25;26.40;;;;;;;;;;5003288;28;20099;-91
2022/11/12 08:50:29;;;;;;;109.03;26.58;;;;;;;;;;5004261;28;20072;-90
2022/11/12 08:53:01;;;;;;;117.32;25.48;;;;;;;;;;5001538;28;20037;-90
2022/11/12 08:55:28;;;;;;;232.23;33.92;;;;;;;;;;5000997;28;20622;-90
2022/11/12 08:57:58;;;;;;;170.25;29.48;;;;;;;;;;4977491;28;20084;-90
2022/11/12 09:00:24;;;;;;;179.43;31.77;;;;;;;;;;4997728;28;20142;-90
2022/11/12 09:02:50;;;;;;;145.85;27.02;;;;;;;;;;5016208;28;20033;-90
2022/11/12 09:05:16;;;;;;;137.13;25.45;;;;;;;;;;4982813;28;20042;-89
2022/11/12 09:07:42;;;;;;;210.95;32.05;;;;;;;;;;4990632;28;20038;-90
2022/11/12 09:10:08;;;;;;;202.05;30.70;;;;;;;;;;4988277;28;20041;-89
2022/11/12 09:12:34;;;;;;;149.05;28.67;;;;;;;;;;4981415;28;20041;-89
2022/11/12 09:15:00;;;;;;;133.32;27.52;;;;;;;;;;4995222;28;20112;-89
2022/11/12 09:17:28;;;;;;;163.57;30.42;;;;;;;;;;5016534;28;20037;-88
2022/11/12 09:19:54;;;;;;;105.78;25.38;;;;;;;;;;4988830;28;20025;-89
2022/11/12 09:22:20;;;;;;;127.30;28.48;;;;;;;;;;4998574;28;20493;-90
2022/11/12 09:24:46;;;;;;;119.03;26.92;;;;;;;;;;5001403;28;20034;-90
2022/11/12 09:27:12;;;;;;;116.90;25.83;;;;;;;;;;4985248;28;20061;-89
2022/11/12 09:29:38;;;;;;;215.48;33.70;;;;;;;;;;5000113;28;20057;-89
2022/11/12 09:32:04;;;;;;;128.40;23.20;;;;;;;;;;5002466;28;20044;-89
2022/11/12 09:34:30;;;;;;;126.95;27.15;;;;;;;;;;4999421;28;20069;-89
2022/11/12 09:36:56;;;;;;;144.48;29.05;;;;;;;;;;4996589;28;20637;-88
2022/11/12 09:39:22;;;;;;;129.23;25.77;;;;;;;;;;4988751;28;20033;-89
2022/11/12 09:41:48;;;;;;;121.57;27.92;;;;;;;;;;4987652;28;20041;-90
2022/11/12 09:44:16;;;;;;;183.90;31.58;;;;;;;;;;4989588;28;20046;-89
2022/11/12 09:46:53;;;;;;;149.95;29.85;;;;;;;;;;5022795;28;20048;-89
2022/11/12 09:49:22;;;;;;;140.82;27.92;;;;;;;;;;4998544;28;20030;-89
2022/11/12 09:51:54;;;;;;;133.05;25.80;;;;;;;;;;5004850;28;20457;-89
2022/11/12 09:54:25;;;;;;;152.30;27.83;;;;;;;;;;5007409;28;20579;-89
2022/11/12 09:56:52;;;;;;;231.85;35.08;;;;;;;;;;5011516;28;20021;-89
2022/11/12 09:59:18;;;;;;;138.57;23.95;;;;;;;;;;5005481;28;20036;-89
2022/11/12 10:01:52;;;;;;;130.60;27.10;;;;;;;;;;5012575;28;20029;-89
2022/11/12 10:04:27;;;;;;;140.95;27.73;;;;;;;;;;5022952;28;20092;-89
2022/11/12 10:07:12;;;;;;;136.77;28.27;;;;;;;;;;5006072;28;20038;-89
2022/11/12 10:09:53;;;;;;;133.80;25.85;;;;;;;;;;5005692;28;20026;-89
2022/11/12 10:12:32;;;;;;;130.52;25.85;;;;;;;;;;5008063;28;20433;-89
2022/11/12 10:18:19;;;;;;;106.60;22.97;;;;;;;;;;4986967;28;20032;-89
2022/11/12 10:21:15;;;;;;;87.50;22.88;;;;;;;;;;5004023;28;20033;-89
2022/11/12 10:23:51;;;;;;;109.57;24.20;;;;;;;;;;4995633;28;20942;-90
2022/11/12 10:26:19;;;;;;;75.45;20.20;;;;;;;;;;5020553;28;20024;-89
2022/11/12 10:29:11;;;;;;;73.53;19.55;;;;;;;;;;5019171;28;20136;-89
2022/11/12 10:31:37;;;;;;;95.53;25.10;;;;;;;;;;5014953;28;20164;-89
2022/11/12 10:34:13;;;;;;;96.43;23.52;;;;;;;;;;5019173;28;20045;-89
2022/11/12 10:36:39;;;;;;;;;;;;;;;;;;5021011;28;20032;-89
2022/11/12 10:39:05;;;;;;;72.13;18.70;;;;;;;;;;5003166;28;19917;-88
2022/11/12 10:41:32;;;;;;;57.25;15.13;;;;;;;;;;4986737;28;20054;-89
2022/11/12 10:44:03;;;;;;;105.55;20.45;;;;;;;;;;4987588;28;20482;-89
2022/11/12 10:46:34;;;;;;;86.50;22.60;;;;;;;;;;5005258;28;20221;-88
2022/11/12 10:49:21;;;;;;;64.88;18.33;;;;;;;;;;5004075;28;20120;-89
2022/11/12 10:51:55;;;;;;;84.45;20.75;;;;;;;;;;5009513;28;20042;-89
2022/11/12 10:54:51;;;;;;;54.58;17.75;;;;;;;;;;5002906;28;20049;-89
2022/11/12 10:57:22;;;;;;;71.18;19.75;;;;;;;;;;4993210;28;20041;-88
2022/11/12 11:00:05;;;;;;;67.95;18.85;;;;;;;;;;5005072;28;20033;-88
2022/11/12 11:02:31;;;;;;;67.22;18.33;;;;;;;;;;5010754;28;20521;-89
2022/11/12 11:04:57;;;;;;;69.45;18.70;;;;;;;;;;4989388;28;20060;-88
2022/11/12 11:07:24;;;;;;;114.60;21.75;;;;;;;;;;5004210;28;20052;-89
2022/11/12 11:09:55;;;;;;;78.93;20.05;;;;;;;;;;5008189;28;20140;-89
2022/11/12 11:12:29;;;;;;;76.90;19.08;;;;;;;;;;5010731;28;20043;-89
2022/11/12 11:15:06;;;;;;;71.72;20.33;;;;;;;;;;5023801;28;20085;-90
2022/11/12 11:17:32;;;;;;;92.10;20.30;;;;;;;;;;5005960;28;20052;-88
2022/11/12 11:19:59;;;;;;;82.53;20.80;;;;;;;;;;5002714;28;20120;-87
2022/11/12 11:22:34;;;;;;;94.30;21.52;;;;;;;;;;5001281;28;20370;-88
2022/11/12 11:25:03;;;;;;;76.75;19.02;;;;;;;;;;5019536;28;20036;-88
2022/11/12 11:27:29;;;;;;;80.93;21.08;;;;;;;;;;5008858;28;20063;-89
2022/11/12 11:30:01;;;;;;;65.65;20.55;;;;;;;;;;5008636;28;21447;-89
2022/11/12 11:32:44;;;;;;;71.38;20.63;;;;;;;;;;5020278;28;20434;-89
2022/11/12 11:35:14;;;;;;;85.45;20.83;;;;;;;;;;5005855;28;20065;-89
2022/11/12 11:37:52;;;;;;;78.03;21.55;;;;;;;;;;5005407;28;20599;-89
2022/11/12 11:40:30;;;;;;;77.88;20.77;;;;;;;;;;4997161;28;20063;-89
2022/11/12 11:43:14;;;;;;;70.93;20.52;;;;;;;;;;5024980;28;20370;-89
2022/11/12 11:45:52;;;;;;;88.10;20.33;;;;;;;;;;5003161;28;20456;-88
2022/11/12 11:48:21;;;;;;;74.28;20.98;;;;;;;;;;5022781;28;20038;-89
2022/11/12 11:50:56;;;;;;;67.45;19.23;;;;;;;;;;5016061;28;20112;-89
2022/11/12 11:53:22;;;;;;;81.72;21.65;;;;;;;;;;5009677;28;20040;-89
2022/11/12 11:55:53;;;;;;;86.30;19.10;;;;;;;;;;5006586;28;20382;-90
2022/11/12 11:58:22;;;;;;;71.75;19.73;;;;;;;;;;5000816;28;20078;-90
2022/11/12 12:01:03;;;;;;;54.95;20.05;;;;;;;;;;5020171;28;20067;-89
2022/11/12 12:03:38;;;;;;;78.00;20.75;;;;;;;;;;5003598;28;20026;-89
2022/11/12 12:06:13;;;;;;;75.68;22.90;;;;;;;;;;5002206;28;20081;-89
2022/11/12 12:08:45;;;;;;;62.53;20.52;;;;;;;;;;5014929;28;20056;-89
2022/11/12 12:11:14;;;;;;;48.85;19.35;;;;;;;;;;5010462;28;20128;-89
2022/11/12 12:13:43;;;;;;;67.63;22.55;;;;;;;;;;4998477;28;20121;-89
2022/11/12 12:16:12;;;;;;;66.35;23.63;;;;;;;;;;4998092;28;20481;-89
2022/11/12 12:18:52;;;;;;;60.63;22.48;;;;;;;;;;4996417;28;20077;-89
2022/11/12 12:21:20;;;;;;;54.20;21.50;;;;;;;;;;5002489;28;20117;-89
2022/11/12 12:24:00;;;;;;;59.72;21.70;;;;;;;;;;4998798;28;20117;-89
2022/11/12 12:26:28;;;;;;;61.17;23.92;;;;;;;;;;5022217;28;20036;-89
2022/11/12 12:29:02;;;;;;;48.03;22.90;;;;;;;;;;4999813;28;20116;-90
2022/11/12 12:31:35;;;;;;;47.70;20.48;;;;;;;;;;5018945;28;20029;-89
2022/11/12 12:34:04;;;;;;;43.67;21.15;;;;;;;;;;4999274;28;20428;-89
2022/11/12 12:36:38;;;;;;;36.03;19.02;;;;;;;;;;5001397;28;20470;-89
2022/11/12 12:39:13;;;;;;;40.95;19.60;;;;;;;;;;5015433;28;20041;-89
2022/11/12 12:41:58;;;;;;;41.20;19.52;;;;;;;;;;5006565;28;20397;-89
2022/11/12 12:44:58;;;;;;;39.65;20.67;;;;;;;;;;5024021;28;20048;-89
2022/11/12 12:47:11;;;;;;;41.55;21.15;;;;;;;;;;5024329;28;20116;-90
2022/11/12 12:49:38;;;;;;;40.03;18.73;;;;;;;;;;5002077;28;20044;-89
2022/11/12 12:52:04;;;;;;;49.00;21.05;;;;;;;;;;5004698;28;20562;-89
2022/11/12 12:54:40;;;;;;;48.38;22.95;;;;;;;;;;5010533;28;20037;-89
2022/11/12 12:57:25;;;;;;;45.50;20.85;;;;;;;;;;5001129;28;20034;-89
2022/11/12 12:59:51;;;;;;;48.45;23.85;;;;;;;;;;5004886;28;20053;-89
2022/11/12 13:02:25;;;;;;;50.33;22.83;;;;;;;;;;4989704;28;20919;-89
2022/11/12 13:04:57;;;;;;;43.42;21.15;;;;;;;;;;5009333;28;20047;-89
2022/11/12 13:07:42;;;;;;;44.45;21.35;;;;;;;;;;5005307;28;20542;-89
2022/11/12 13:10:27;;;;;;;43.10;21.63;;;;;;;;;;5003584;28;20036;-89
2022/11/12 13:13:16;;;;;;;66.18;33.25;;;;;;;;;;5002200;28;20029;-89
2022/11/12 13:15:44;;;;;;;44.63;22.70;;;;;;;;;;4993922;28;20132;-89
2022/11/12 13:18:10;;;;;;;111.88;55.22;;;;;;;;;;5000327;28;20733;-89
2022/11/12 13:20:40;;;;;;;68.30;31.27;;;;;;;;;;5003257;28;20120;-89
2022/11/12 13:23:11;;;;;;;45.17;23.65;;;;;;;;;;5007711;28;20044;-89
2022/11/12 13:25:39;;;;;;;45.85;22.50;;;;;;;;;;5001278;28;20037;-90
2022/11/12 13:28:15;;;;;;;40.15;20.33;;;;;;;;;;5003721;28;20060;-90
2022/11/12 13:30:48;;;;;;;47.53;22.48;;;;;;;;;;4987422;28;20080;-89
2022/11/12 13:33:24;;;;;;;40.60;20.45;;;;;;;;;;5002572;28;20029;-89
2022/11/12 13:35:51;;;;;;;44.35;23.33;;;;;;;;;;5008104;28;20068;-89
2022/11/12 13:38:18;;;;;;;54.35;23.60;;;;;;;;;;4999426;28;20112;-89
2022/11/12 13:41:08;;;;;;;51.42;22.85;;;;;;;;;;4983849;28;20037;-90
2022/11/12 13:43:39;;;;;;;44.97;22.52;;;;;;;;;;4960721;28;20485;-90
2022/11/12 13:46:09;;;;;;;45.08;24.38;;;;;;;;;;4999538;28;20022;-90
2022/11/12 13:48:35;;;;;;;44.00;20.65;;;;;;;;;;5004609;28;20593;-90
2022/11/12 13:51:03;;;;;;;47.05;23.25;;;;;;;;;;4999445;28;20116;-89
2022/11/12 13:53:31;;;;;;;47.08;24.13;;;;;;;;;;5007848;28;20148;-89
2022/11/12 13:55:57;;;;;;;50.72;23.02;;;;;;;;;;5019554;28;20465;-90
2022/11/12 13:58:31;;;;;;;44.33;22.45;;;;;;;;;;4984746;28;20361;-89
2022/11/12 14:00:58;;;;;;;48.90;23.10;;;;;;;;;;4998641;28;20034;-90
2022/11/12 14:03:26;;;;;;;41.10;23.05;;;;;;;;;;5003293;28;20477;-89
2022/11/12 14:05:56;;;;;;;47.97;23.25;;;;;;;;;;5002130;28;20057;-89
2022/11/12 14:08:28;;;;;;;44.13;23.70;;;;;;;;;;4989962;28;20061;-89
2022/11/12 14:10:54;;;;;;;42.50;23.73;;;;;;;;;;4998692;28;20045;-90
2022/11/12 14:13:23;;;;;;;42.63;21.30;;;;;;;;;;5003996;28;20445;-89
2022/11/12 14:16:01;;;;;;;35.40;20.42;;;;;;;;;;5001027;28;20825;-89
2022/11/12 14:18:27;;;;;;;74.20;41.00;;;;;;;;;;4995688;28;20120;-89
2022/11/12 14:20:54;;;;;;;115.10;66.85;;;;;;;;;;4999301;28;20121;-89
2022/11/12 14:23:21;;;;;;;61.35;32.28;;;;;;;;;;5007731;28;20092;-89
2022/11/12 14:25:51;;;;;;;44.35;23.63;;;;;;;;;;4982522;28;20121;-89
2022/11/12 14:28:24;;;;;;;37.22;19.45;;;;;;;;;;5018080;28;20487;-89
2022/11/12 14:30:50;;;;;;;33.03;18.75;;;;;;;;;;4976776;28;20137;-89
2022/11/12 14:33:17;;;;;;;32.42;19.20;;;;;;;;;;4965931;28;20158;-89
2022/11/12 14:35:43;;;;;;;30.60;17.90;;;;;;;;;;5000119;28;20038;-89
2022/11/12 14:38:21;;;;;;;34.58;19.10;;;;;;;;;;4976475;28;20061;-89
2022/11/12 14:40:55;;;;;;;32.55;17.55;;;;;;;;;;4978805;28;20302;-89
2022/11/12 14:43:26;;;;;;;33.08;18.80;;;;;;;;;;4984389;28;20528;-89
2022/11/12 14:45:53;;;;;;;27.05;17.00;;;;;;;;;;4982572;28;20374;-89
2022/11/12 14:48:19;;;;;;;30.45;19.27;;;;;;;;;;5008840;28;20035;-89
2022/11/12 14:50:46;;;;;;;32.33;19.33;;;;;;;;;;4978643;28;20120;-89
2022/11/12 14:53:15;;;;;;;29.27;18.20;;;;;;;;;;4978033;28;20069;-89
2022/11/12 14:55:43;;;;;;;33.58;18.92;;;;;;;;;;4976893;28;20214;-89
2022/11/12 14:58:16;;;;;;;37.45;19.52;;;;;;;;;;4973262;28;20107;-89